Narayanganj, Bangladesh
Current Conditions -  °F | °C
As of 7:50 PM on Wednesday 22 Oct 2014 (Local Time) from VGHS Reporting Station
Haze Haze  
Wind Chill: 81°   Ceiling: Unl
Heat Index: 84°   Visibility: 2.8mi
Dew Point: 70°   Wind: 0mph
Humidity: 70%   Direction: NA
Pressure: 29.85"   Gusts: NA
Location:  23.62°N, 90.5°E
Report Text: VGHS 221350Z 00000KT 4500 HZ FEW015 SCT100 27/21 Q1011 NOSIG
Loading
Personal Weather Stations






























Interactive Weather Map
Tropical Storm Tracking
New forecast layout! Learn more

10-Day Weather Forecast

Advertisements
Track Severe Weather on mobile